Time;durP1;ratioP1;P1;durP2;ratioP2;P2;SDS_P1;SDS_P2;PMS_P1;PMS_P2;Temp;Humidity;BMP_temperature;BMP_pressure;BME280_temperature;BME280_humidity;BME280_pressure;Samples;Min_cycle;Max_cycle;Signal;HPM_P1;HPM_P2
2022/08/21 00:00:46;;;;;;;9.03;8.13;;;;;;;17.83;100.00;100298.72;1787490;80;21075;-81
2022/08/21 00:03:14;;;;;;;9.25;8.18;;;;;;;17.78;100.00;100296.38;1765412;80;21490;-80
2022/08/21 00:05:46;;;;;;;8.60;7.62;;;;;;;17.76;100.00;100302.25;1787773;80;21186;-81
2022/08/21 00:08:13;;;;;;;8.43;7.55;;;;;;;17.73;100.00;100298.94;1765400;80;20975;-81
2022/08/21 00:10:42;;;;;;;8.35;7.55;;;;;;;17.71;100.00;100295.53;1787377;80;21119;-81
2022/08/21 00:13:10;;;;;;;10.28;7.55;;;;;;;17.68;100.00;100282.49;1765523;80;21029;-80
2022/08/21 00:15:40;;;;;;;9.25;8.35;;;;;;;17.62;100.00;100281.11;1787439;80;21569;-80
2022/08/21 00:18:10;;;;;;;10.00;7.92;;;;;;;17.61;100.00;100288.70;1765593;80;21045;-80
2022/08/21 00:20:38;;;;;;;;;;;;;;;17.61;100.00;100283.41;1789940;80;21985;-82
2022/08/21 00:23:05;;;;;;;8.25;7.37;;;;;;;17.60;100.00;100284.37;1785755;80;20155;-80
2022/08/21 00:25:33;;;;;;;8.60;7.70;;;;;;;17.55;100.00;100278.53;1787294;80;21019;-80
2022/08/21 00:28:01;;;;;;;7.92;7.12;;;;;;;17.55;100.00;100278.05;1787357;80;21528;-80
2022/08/21 00:30:30;;;;;;;12.75;8.40;;;;;;;17.55;100.00;100279.38;1776463;80;21078;-80
2022/08/21 00:32:57;;;;;;;10.53;8.00;;;;;;;17.59;100.00;100282.66;1783790;80;21482;-80
2022/08/21 00:35:33;;;;;;;8.93;8.00;;;;;;;17.56;100.00;100283.70;1769776;80;20955;-80
2022/08/21 00:38:00;;;;;;;10.78;7.92;;;;;;;17.49;100.00;100288.23;1787011;80;21035;-80
2022/08/21 00:40:36;;;;;;;9.43;8.03;;;;;;;17.48;100.00;100287.35;1774140;79;21466;-80
2022/08/21 00:43:06;;;;;;;8.43;7.62;;;;;;;17.48;100.00;100286.51;1751411;80;21198;-80
2022/08/21 00:45:33;;;;;;;8.85;7.97;;;;;;;17.48;100.00;100284.70;1748953;81;26900;-80
2022/08/21 00:48:01;;;;;;;10.45;8.15;;;;;;;17.46;100.00;100285.30;1743079;80;21534;-80
2022/08/21 00:50:33;;;;;;;11.10;8.83;;;;;;;17.47;100.00;100284.34;1773893;80;21587;-80
2022/08/21 00:53:02;;;;;;;8.88;7.97;;;;;;;17.47;100.00;100281.69;1753302;79;21499;-80
2022/08/21 00:55:30;;;;;;;9.20;8.27;;;;;;;17.46;100.00;100283.98;1773607;80;21112;-80
2022/08/21 00:58:01;;;;;;;9.68;7.67;;;;;;;17.44;100.00;100277.08;1773567;80;20988;-80
2022/08/21 01:00:33;;;;;;;9.38;8.48;;;;;;;17.42;100.00;100271.03;1751963;80;21055;-80
2022/08/21 01:03:05;;;;;;;10.03;8.45;;;;;;;17.39;100.00;100275.58;1773985;80;21067;-80
2022/08/21 01:05:33;;;;;;;11.10;8.10;;;;;;;17.35;100.00;100270.13;1751733;80;21552;-80
2022/08/21 01:08:00;;;;;;;10.88;8.68;;;;;;;17.29;100.00;100266.58;1773771;80;21947;-80
2022/08/21 01:10:27;;;;;;;9.55;8.58;;;;;;;17.29;100.00;100265.25;1752075;79;21593;-80
2022/08/21 01:12:56;;;;;;;10.38;9.28;;;;;;;17.33;100.00;100260.58;1773568;80;21075;-80
2022/08/21 01:15:28;;;;;;;10.10;9.13;;;;;;;17.34;100.00;100270.22;1751949;80;20993;-83
2022/08/21 01:17:55;;;;;;;10.00;8.88;;;;;;;17.30;100.00;100270.06;1773656;79;21027;-78
2022/08/21 01:20:23;;;;;;;10.30;9.20;;;;;;;17.27;100.00;100264.98;1773506;80;21823;-78
2022/08/21 01:22:50;;;;;;;11.88;9.53;;;;;;;17.27;100.00;100264.49;1753016;80;21066;-78
2022/08/21 01:25:21;;;;;;;10.88;9.78;;;;;;;17.26;100.00;100250.86;1773636;80;21628;-78
2022/08/21 01:27:49;;;;;;;11.63;9.35;;;;;;;17.26;100.00;100256.16;1752218;80;21043;-78
2022/08/21 01:30:24;;;;;;;10.40;9.30;;;;;;;17.24;100.00;100251.94;1773692;80;21062;-78
2022/08/21 01:32:53;;;;;;;10.15;8.93;;;;;;;17.22;100.00;100252.03;1767966;80;21041;-78
2022/08/21 01:35:20;;;;;;;10.38;9.35;;;;;;;17.21;100.00;100256.09;1758699;80;21010;-78
2022/08/21 01:37:48;;;;;;;11.65;9.80;;;;;;;17.22;100.00;100251.19;1769694;80;21063;-78
2022/08/21 01:40:17;;;;;;;10.68;9.25;;;;;;;17.20;100.00;100250.43;1739998;81;21019;-78
2022/08/21 01:42:45;;;;;;;11.77;9.23;;;;;;;17.18;100.00;100246.55;1755085;81;21041;-78
2022/08/21 01:45:14;;;;;;;10.78;9.05;;;;;;;17.14;100.00;100245.91;1743402;81;22076;-78
2022/08/21 01:47:43;;;;;;;11.27;10.17;;;;;;;17.20;100.00;100241.16;1742017;81;20975;-78
2022/08/21 01:50:14;;;;;;;10.23;9.23;;;;;;;17.20;100.00;100236.70;1711418;81;21034;-78
2022/08/21 01:52:42;;;;;;;10.90;8.95;;;;;;;17.16;100.00;100236.08;1731345;81;21014;-78
2022/08/21 01:55:12;;;;;;;9.20;8.28;;;;;;;17.15;100.00;100234.39;1733402;81;21014;-78
2022/08/21 01:57:39;;;;;;;8.95;8.10;;;;;;;17.14;100.00;100235.32;1729852;81;21123;-79
2022/08/21 02:00:10;;;;;;;8.93;8.00;;;;;;;17.12;100.00;100237.22;1723132;81;20986;-79
2022/08/21 02:02:41;;;;;;;9.23;8.38;;;;;;;17.12;100.00;100229.75;1756487;81;21021;-78
2022/08/21 02:05:11;;;;;;;11.28;8.78;;;;;;;17.13;100.00;100230.98;1735352;82;21579;-79
2022/08/21 02:07:46;;;;;;;8.35;7.55;;;;;;;17.12;100.00;100230.59;1756694;80;21056;-78
2022/08/21 02:10:19;;;;;;;8.40;7.50;;;;;;;17.06;100.00;100233.66;1742440;82;21106;-79
2022/08/21 02:12:46;;;;;;;8.38;7.58;;;;;;;17.05;100.00;100225.84;1743025;81;21089;-79
2022/08/21 02:15:14;;;;;;;9.05;8.15;;;;;;;17.04;100.00;100224.96;1719167;81;21035;-79
2022/08/21 02:17:46;;;;;;;10.10;8.45;;;;;;;17.07;100.00;100221.27;1728394;81;20996;-79
2022/08/21 02:20:18;;;;;;;8.98;8.18;;;;;;;17.03;100.00;100215.33;1710969;80;21511;-79
2022/08/21 02:22:45;;;;;;;9.38;7.97;;;;;;;17.05;100.00;100216.56;1724384;81;21164;-79
2022/08/21 02:25:12;;;;;;;11.20;9.18;;;;;;;17.05;100.00;100220.06;1740831;81;21050;-79
2022/08/21 02:27:43;;;;;;;8.88;8.08;;;;;;;17.06;100.00;100216.93;1710689;81;21011;-78
2022/08/21 02:30:21;;;;;;;10.25;8.83;;;;;;;17.06;100.00;100224.39;1740195;81;21037;-79
2022/08/21 02:32:48;;;;;;;9.40;8.30;;;;;;;17.09;100.00;100230.80;1757302;80;21557;-78
2022/08/21 02:35:16;;;;;;;9.53;8.53;;;;;;;17.10;100.00;100224.58;1737368;82;21112;-79
2022/08/21 02:37:51;;;;;;;9.50;8.23;;;;;;;17.07;100.00;100234.05;1732896;82;21056;-79
2022/08/21 02:40:23;;;;;;;10.43;9.37;;;;;;;17.08;100.00;100236.22;1733016;81;21075;-78
2022/08/21 02:42:50;;;;;;;11.65;9.58;;;;;;;17.06;100.00;100231.02;1723253;81;21006;-78
2022/08/21 02:45:18;;;;;;;10.10;8.83;;;;;;;17.06;100.00;100229.69;1729535;81;21058;-79
2022/08/21 02:47:55;;;;;;;9.28;8.35;;;;;;;17.09;100.00;100217.56;1711090;83;21105;-79
2022/08/21 02:50:26;;;;;;;8.78;7.97;;;;;;;17.11;100.00;100222.28;1756825;81;20965;-79
2022/08/21 02:52:54;;;;;;;8.70;7.83;;;;;;;17.13;100.00;100223.52;1735636;82;21033;-79
2022/08/21 02:55:26;;;;;;;8.78;7.87;;;;;;;17.17;100.00;100229.81;1739062;81;21072;-79
2022/08/21 02:57:54;;;;;;;8.83;7.85;;;;;;;17.20;100.00;100223.95;1739814;82;21058;-79
2022/08/21 03:00:23;;;;;;;7.67;6.87;;;;;;;17.20;100.00;100226.59;1757611;80;21943;-79
2022/08/21 03:02:53;;;;;;;8.15;6.95;;;;;;;17.19;100.00;100227.08;1722257;81;21066;-79
2022/08/21 03:05:20;;;;;;;6.90;6.00;;;;;;;17.22;100.00;100228.19;1711130;83;21069;-79
2022/08/21 03:07:49;;;;;;;7.62;6.65;;;;;;;17.23;100.00;100221.94;1711201;83;21137;-78
2022/08/21 03:10:16;;;;;;;7.47;6.75;;;;;;;17.26;100.00;100230.99;1729062;82;21057;-79
2022/08/21 03:12:44;;;;;;;7.08;6.37;;;;;;;17.25;100.00;100231.11;1737918;82;21095;-79
2022/08/21 03:15:14;;;;;;;7.00;6.33;;;;;;;17.23;100.00;100231.20;1755990;80;20961;-79
2022/08/21 03:17:41;;;;;;;6.60;5.90;;;;;;;17.24;100.00;100232.08;1718049;82;21027;-79
2022/08/21 03:20:10;;;;;;;6.78;6.08;;;;;;;17.23;100.00;100231.20;1735840;81;21076;-79
2022/08/21 03:22:37;;;;;;;6.60;6.00;;;;;;;17.25;100.00;100229.30;1757895;81;21006;-79
2022/08/21 03:25:06;;;;;;;6.65;6.03;;;;;;;17.26;100.00;100226.17;1724629;81;21923;-79
2022/08/21 03:27:34;;;;;;;6.28;5.67;;;;;;;17.26;100.00;100225.69;1721949;82;21510;-80
2022/08/21 03:30:05;;;;;;;6.20;5.60;;;;;;;17.27;100.00;100227.89;1753358;81;21003;-80
2022/08/21 03:32:32;;;;;;;5.78;5.20;;;;;;;17.27;100.00;100224.77;1736577;81;21031;-80
2022/08/21 03:35:00;;;;;;;6.10;5.03;;;;;;;17.29;100.00;100225.97;1725611;82;21029;-80
2022/08/21 03:37:27;;;;;;;8.33;5.35;;;;;;;17.28;100.00;100223.80;1737339;82;21164;-80
2022/08/21 03:39:54;;;;;;;6.65;5.60;;;;;;;17.28;100.00;100231.75;1751734;78;21041;-81
2022/08/21 03:42:23;;;;;;;7.10;5.47;;;;;;;17.28;100.00;100231.75;1742165;82;21094;-80
2022/08/21 03:44:50;;;;;;;6.47;5.83;;;;;;;17.27;100.00;100231.87;1742148;82;21057;-80
2022/08/21 03:47:18;;;;;;;7.05;5.75;;;;;;;17.24;100.00;100238.70;1742303;82;21626;-81
2022/08/21 03:49:45;;;;;;;6.17;5.37;;;;;;;17.23;100.00;100241.80;1742248;82;21101;-82
2022/08/21 03:52:12;;;;;;;5.97;5.30;;;;;;;17.22;100.00;100248.05;1741969;82;21572;-82
2022/08/21 03:54:40;;;;;;;7.17;6.17;;;;;;;17.23;100.00;100252.39;1742056;82;21591;-83
2022/08/21 03:57:09;;;;;;;7.67;6.87;;;;;;;17.23;100.00;100256.84;1742262;82;21034;-82
2022/08/21 03:59:37;;;;;;;7.40;5.97;;;;;;;17.23;100.00;100245.77;1742255;82;21022;-82
2022/08/21 04:02:07;;;;;;;8.45;7.50;;;;;;;17.25;100.00;100255.80;1759591;80;21981;-83
2022/08/21 04:04:35;;;;;;;8.70;6.40;;;;;;;17.27;100.00;100250.41;1772074;80;21007;-82
2022/08/21 04:07:03;;;;;;;7.37;6.40;;;;;;;17.28;100.00;100252.94;1771710;80;21050;-83
2022/08/21 04:09:30;;;;;;;9.48;7.28;;;;;;;17.27;100.00;100248.60;1771970;80;21535;-83
2022/08/21 04:12:00;;;;;;;8.40;7.60;;;;;;;17.25;100.00;100249.17;1742303;82;21085;-83
2022/08/21 04:14:27;;;;;;;8.10;7.30;;;;;;;17.24;100.00;100247.48;1742969;82;21092;-82
2022/08/21 04:16:54;;;;;;;11.00;8.38;;;;;;;17.24;100.00;100250.14;1742276;82;21030;-84
2022/08/21 04:19:21;;;;;;;8.58;7.50;;;;;;;17.22;100.00;100244.09;1742674;82;21014;-83
2022/08/21 04:21:49;;;;;;;9.03;8.13;;;;;;;17.20;100.00;100243.33;1742338;82;21583;-82
2022/08/21 04:24:16;;;;;;;8.18;7.25;;;;;;;17.18;100.00;100238.60;1742622;82;21694;-83
2022/08/21 04:26:43;;;;;;;9.75;7.95;;;;;;;17.19;100.00;100239.48;1742390;82;21948;-83
2022/08/21 04:29:11;;;;;;;8.55;6.95;;;;;;;17.19;100.00;100240.80;1739879;82;21042;-82
2022/08/21 04:31:38;;;;;;;9.28;7.47;;;;;;;17.17;100.00;100236.44;1776900;80;21023;-83
2022/08/21 04:34:05;;;;;;;8.43;7.58;;;;;;;17.20;100.00;100238.03;1768912;80;20992;-83
2022/08/21 04:36:33;;;;;;;8.08;7.08;;;;;;;17.20;100.00;100232.73;1756726;80;21032;-83
2022/08/21 04:39:01;;;;;;;7.33;6.58;;;;;;;17.21;100.00;100238.88;1768944;80;21107;-82
2022/08/21 04:41:28;;;;;;;7.58;6.78;;;;;;;17.19;100.00;100232.38;1780970;78;21102;-83
2022/08/21 04:43:56;;;;;;;7.92;6.75;;;;;;;17.21;100.00;100243.72;1765656;80;21011;-82
2022/08/21 04:46:23;;;;;;;8.65;7.67;;;;;;;17.22;100.00;100249.86;1756296;81;20924;-83
2022/08/21 04:48:51;;;;;;;9.65;8.08;;;;;;;17.21;100.00;100255.64;1754915;81;21392;-84
2022/08/21 04:51:23;;;;;;;8.35;7.45;;;;;;;17.22;100.00;100257.81;1754813;80;22105;-83
2022/08/21 04:54:01;;;;;;;9.35;7.70;;;;;;;17.23;100.00;100260.82;1754903;81;21023;-82
2022/08/21 04:56:48;;;;;;;10.80;8.70;;;;;;;17.22;100.00;100267.92;1753127;80;21472;-83
2022/08/21 04:59:20;;;;;;;10.38;8.00;;;;;;;17.21;100.00;100264.04;1754110;81;21029;-83
2022/08/21 05:01:49;;;;;;;7.95;7.15;;;;;;;17.21;100.00;100277.28;1755034;81;21059;-83
2022/08/21 05:04:21;;;;;;;10.25;7.87;;;;;;;17.19;100.00;100279.20;1754996;81;21105;-84
2022/08/21 05:06:49;;;;;;;9.73;7.62;;;;;;;17.17;100.00;100274.84;1755079;81;21063;-84
2022/08/21 05:09:18;;;;;;;9.20;7.53;;;;;;;17.16;100.00;100269.66;1752495;81;21060;-92
2022/08/21 05:11:46;;;;;;;9.78;7.20;;;;;;;17.15;100.00;100274.56;1752880;81;21002;-83
2022/08/21 05:14:14;;;;;;;9.13;6.12;;;;;;;17.13;100.00;100272.03;1753002;81;21654;-90
2022/08/21 05:16:43;;;;;;;10.10;6.97;;;;;;;17.12;100.00;100273.45;1748424;81;21822;-88
2022/08/21 05:19:19;;;;;;;8.13;6.40;;;;;;;17.09;100.00;100267.87;1760553;79;21548;-88
2022/08/21 05:21:49;;;;;;;8.28;6.87;;;;;;;17.07;100.00;100268.92;1763157;80;21562;-89
2022/08/21 05:24:17;;;;;;;7.33;6.12;;;;;;;17.06;100.00;100270.73;1760456;80;21055;-87
2022/08/21 05:26:44;;;;;;;9.90;6.53;;;;;;;17.04;100.00;100279.72;1767386;80;21110;-88
2022/08/21 05:29:12;;;;;;;8.30;5.90;;;;;;;17.03;100.00;100282.85;1761133;79;21946;-89
2022/08/21 05:31:39;;;;;;;8.38;5.95;;;;;;;17.00;100.00;100288.35;1764397;79;21023;-81
2022/08/21 05:34:06;;;;;;;11.53;6.28;;;;;;;16.99;100.00;100293.73;1768188;80;21095;-88
2022/08/21 05:36:32;;;;;;;9.03;5.78;;;;;;;16.98;100.00;100295.54;1760668;79;21103;-90
2022/08/21 05:39:00;;;;;;;9.03;5.62;;;;;;;16.98;100.00;100301.31;1760438;80;21838;-88
2022/08/21 05:41:27;;;;;;;7.55;5.53;;;;;;;16.95;100.00;100304.53;1764402;80;21175;-89
2022/08/21 05:43:54;;;;;;;6.53;4.58;;;;;;;16.92;100.00;100306.53;1778984;80;20934;-87
2022/08/21 05:46:21;;;;;;;7.78;5.00;;;;;;;16.87;100.00;100313.92;1778886;80;21024;-89
2022/08/21 05:48:48;;;;;;;7.85;4.65;;;;;;;16.88;100.00;100324.91;1778827;80;21057;-87
2022/08/21 05:51:16;;;;;;;7.70;4.58;;;;;;;16.87;100.00;100329.80;1778363;80;21629;-83
2022/08/21 05:53:45;;;;;;;10.38;4.87;;;;;;;16.86;100.00;100334.73;1778712;80;21976;-85
2022/08/21 05:56:13;;;;;;;8.98;4.58;;;;;;;16.84;100.00;100337.47;1776972;80;21673;-86
2022/08/21 05:58:40;;;;;;;6.65;3.98;;;;;;;16.80;100.00;100337.30;1778339;80;21371;-87
2022/08/21 06:01:08;;;;;;;6.05;4.00;;;;;;;16.75;100.00;100331.89;1762456;79;20955;-86
2022/08/21 06:03:39;;;;;;;6.65;4.40;;;;;;;16.73;100.00;100342.09;1734427;79;21014;-88
2022/08/21 06:06:06;;;;;;;6.40;4.17;;;;;;;16.69;100.00;100337.11;1779241;79;21793;-86
2022/08/21 06:08:34;;;;;;;6.05;4.08;;;;;;;16.67;100.00;100341.64;1778656;80;21037;-88
2022/08/21 06:11:02;;;;;;;6.30;4.20;;;;;;;16.68;100.00;100347.30;1779085;80;21617;-87
2022/08/21 06:13:30;;;;;;;8.30;3.90;;;;;;;16.65;100.00;100348.34;1778053;80;21595;-86
2022/08/21 06:16:11;;;;;;;7.10;3.55;;;;;;;16.61;100.00;100342.03;1778608;80;21033;-89
2022/08/21 06:18:39;;;;;;;6.47;3.60;;;;;;;16.53;100.00;100354.41;1747789;80;21223;-88
2022/08/21 06:21:07;;;;;;;7.28;3.25;;;;;;;16.45;100.00;100360.17;1762670;79;21047;-91
2022/08/21 06:23:35;;;;;;;6.42;3.15;;;;;;;16.38;100.00;100361.52;1778351;80;21497;-88
2022/08/21 06:26:06;;;;;;;5.00;3.00;;;;;;;16.31;100.00;100366.80;1778128;80;21084;-85
2022/08/21 06:28:34;;;;;;;7.08;3.20;;;;;;;16.27;100.00;100374.55;1762229;79;21094;-89
2022/08/21 06:31:03;;;;;;;6.00;3.42;;;;;;;16.21;100.00;100370.49;1777864;79;21936;-89
2022/08/21 06:33:30;;;;;;;5.70;3.20;;;;;;;16.14;100.00;100371.80;1778041;80;21036;-88
2022/08/21 06:35:58;;;;;;;8.80;3.60;;;;;;;16.06;100.00;100376.69;1779121;80;21017;-86
2022/08/21 06:38:25;;;;;;;4.83;3.00;;;;;;;16.00;100.00;100377.07;1762596;79;21038;-88
2022/08/21 06:40:53;;;;;;;5.62;3.12;;;;;;;15.93;100.00;100383.65;1758651;80;21048;-89
2022/08/21 06:43:22;;;;;;;4.40;2.87;;;;;;;15.87;100.00;100394.12;1770931;80;21959;-88
2022/08/21 06:45:49;;;;;;;8.18;3.10;;;;;;;15.79;100.00;100389.28;1753818;80;21052;-89
2022/08/21 06:48:17;;;;;;;6.40;3.67;;;;;;;15.67;100.00;100388.66;1755906;80;21035;-88
2022/08/21 06:50:44;;;;;;;7.37;3.00;;;;;;;15.67;100.00;100388.66;1756027;80;21063;-88
2022/08/21 06:53:13;;;;;;;6.22;2.70;;;;;;;15.63;100.00;100393.75;1755358;80;21063;-88
2022/08/21 06:55:41;;;;;;;5.60;2.95;;;;;;;15.54;100.00;100387.66;1756594;81;21032;-84
2022/08/21 06:58:10;;;;;;;3.45;2.27;;;;;;;15.51;100.00;100401.05;1754866;81;21035;-87
2022/08/21 07:00:41;;;;;;;8.43;2.40;;;;;;;15.47;100.00;100406.14;1756165;80;21054;-87
2022/08/21 07:03:17;;;;;;;4.70;2.75;;;;;;;15.42;100.00;100413.00;1733525;81;21059;-87
2022/08/21 07:05:45;;;;;;;4.90;2.65;;;;;;;15.36;100.00;100411.55;1758255;78;21093;-87
2022/08/21 07:08:12;;;;;;;4.20;2.60;;;;;;;15.31;100.00;100422.84;1756123;79;21129;-86
2022/08/21 07:10:40;;;;;;;4.95;2.37;;;;;;;15.28;100.00;100420.85;1760860;81;20996;-87
2022/08/21 07:13:07;;;;;;;7.03;2.60;;;;;;;15.27;100.00;100432.33;1750817;80;21075;-85
2022/08/21 07:15:34;;;;;;;5.35;2.90;;;;;;;15.26;100.00;100430.64;1755841;80;21604;-87
2022/08/21 07:18:01;;;;;;;4.75;2.60;;;;;;;15.23;100.00;100438.73;1766978;80;21619;-89
2022/08/21 07:20:30;;;;;;;6.37;2.87;;;;;;;15.21;100.00;100442.77;1749313;81;21703;-88
2022/08/21 07:23:02;;;;;;;4.42;2.35;;;;;;;15.17;100.00;100437.29;1750338;81;21716;-88
2022/08/21 07:25:29;;;;;;;5.03;2.65;;;;;;;15.16;100.00;100438.24;1754591;80;21535;-83
2022/08/21 07:27:56;;;;;;;4.62;2.85;;;;;;;15.16;100.00;100438.24;1765593;80;21082;-85
2022/08/21 07:30:24;;;;;;;6.58;2.90;;;;;;;15.18;100.00;100439.83;1752769;81;21535;-89
2022/08/21 07:32:54;;;;;;;5.22;2.72;;;;;;;15.12;100.00;100424.34;1767356;80;21182;-88
2022/08/21 07:35:23;;;;;;;5.22;3.02;;;;;;;15.12;100.00;100424.34;1766736;80;20972;-82
2022/08/21 07:37:53;;;;;;;4.78;2.75;;;;;;;15.17;100.00;100428.05;1763090;79;21059;-90
2022/08/21 07:40:20;;;;;;;4.47;2.75;;;;;;;15.16;100.00;100428.52;1762930;81;21050;-89
2022/08/21 07:42:51;;;;;;;4.30;2.70;;;;;;;15.16;100.00;100429.00;1765256;79;21062;-86
2022/08/21 07:45:21;;;;;;;5.83;2.70;;;;;;;15.16;100.00;100429.00;1764112;81;21980;-86
2022/08/21 07:47:49;;;;;;;4.67;2.30;;;;;;;15.15;100.00;100425.95;1764100;81;21054;-89
2022/08/21 07:50:16;;;;;;;6.65;2.52;;;;;;;15.06;100.00;100422.05;1762530;81;22109;-88
2022/08/21 07:52:44;;;;;;;3.02;2.00;;;;;;;14.86;100.00;100427.10;1766362;81;21666;-82
2022/08/21 07:55:14;;;;;;;4.22;2.72;;;;;;;14.86;100.00;100427.10;1762805;81;21278;-83
2022/08/21 07:57:41;;;;;;;3.17;2.45;;;;;;;14.80;100.00;100428.76;1765663;81;21110;-85
2022/08/21 08:00:14;;;;;;;3.75;2.67;;;;;;;14.76;100.00;100426.36;1766526;80;20955;-83
2022/08/21 08:02:49;;;;;;;4.92;2.50;;;;;;;14.75;100.00;100426.83;1764621;81;21081;-86
2022/08/21 08:05:20;;;;;;;4.25;2.15;;;;;;;14.71;100.00;100426.59;1763861;81;21081;-85
2022/08/21 08:07:47;;;;;;;3.92;2.58;;;;;;;14.63;100.00;100421.75;1763986;81;21059;-88
2022/08/21 08:10:15;;;;;;;4.22;2.33;;;;;;;14.59;100.00;100419.35;1763788;81;21133;-86
2022/08/21 08:12:46;;;;;;;4.78;2.50;;;;;;;14.57;100.00;100420.73;1763856;81;21105;-84
2022/08/21 08:15:21;;;;;;;3.58;2.52;;;;;;;14.57;100.00;100423.84;1765213;81;21050;-86
2022/08/21 08:17:52;;;;;;;4.53;2.45;;;;;;;14.59;100.00;100425.95;1763158;81;21047;-87
2022/08/21 08:20:19;;;;;;;4.60;2.60;;;;;;;14.59;100.00;100424.16;1762619;81;21601;-84
2022/08/21 08:22:47;;;;;;;4.00;2.52;;;;;;;14.63;100.00;100427.03;1764998;81;21317;-85
2022/08/21 08:25:16;;;;;;;3.92;2.60;;;;;;;14.70;100.00;100435.45;1763336;81;21038;-83
2022/08/21 08:27:43;;;;;;;6.55;2.92;;;;;;;14.75;100.00;100436.06;1762636;81;21027;-83
2022/08/21 08:30:15;;;;;;;4.97;2.98;;;;;;;14.78;100.00;100431.94;1762404;81;21047;-83
2022/08/21 08:32:42;;;;;;;3.65;2.50;;;;;;;14.78;100.00;100427.98;1762369;81;21030;-85
2022/08/21 08:35:11;;;;;;;4.65;2.58;;;;;;;14.70;100.00;100428.39;1762092;81;21345;-84
2022/08/21 08:37:39;;;;;;;2.92;2.12;;;;;;;14.65;100.00;100429.57;1764776;79;21047;-85
2022/08/21 08:40:14;;;;;;;5.62;2.30;;;;;;;14.62;100.00;100437.17;1764629;81;21035;-84
2022/08/21 08:42:42;;;;;;;3.17;2.30;;;;;;;14.57;100.00;100431.77;1760460;80;21126;-82
2022/08/21 08:45:20;;;;;;;3.67;2.25;;;;;;;14.53;100.00;100441.63;1763594;81;21299;-81
2022/08/21 08:47:51;;;;;;;5.33;2.30;;;;;;;14.55;100.00;100435.81;1757224;79;22004;-85
2022/08/21 08:50:24;;;;;;;4.25;2.45;;;;;;;14.51;100.00;100436.39;1760868;79;20971;-81
2022/08/21 08:52:57;;;;;;;4.83;1.85;;;;;;;14.50;100.00;100433.85;1782292;80;21544;-86
2022/08/21 08:55:32;;;;;;;5.60;2.42;;;;;;;14.46;100.00;100434.45;1769568;78;21054;-82
2022/08/21 08:57:59;;;;;;;4.87;2.47;;;;;;;14.47;100.00;100436.18;1742304;81;21296;-89
2022/08/21 09:00:30;;;;;;;4.53;2.12;;;;;;;14.48;100.00;100440.52;1771703;80;21428;-82
2022/08/21 09:02:59;;;;;;;;;;;;;;;14.53;100.00;100448.22;1775246;78;21685;-90
2022/08/21 09:05:43;;;;;;;6.97;2.70;;;;;;;14.50;100.00;100451.84;1759093;80;20951;-86
2022/08/21 09:08:32;;;;;;;3.80;2.10;;;;;;;14.51;100.00;100455.33;1746722;81;21576;-86
2022/08/21 09:11:22;;;;;;;6.12;2.20;;;;;;;14.54;100.00;100455.19;1752481;81;21055;-87
2022/08/21 09:14:11;;;;;;;;;;;;;;;14.55;100.00;100452.08;1752356;81;21279;-80
2022/08/21 09:17:24;;;;;;;4.45;2.20;;;;;;;14.53;100.00;100453.50;1674460;83;20692;-82
2022/08/21 09:20:21;;;;;;;4.33;2.42;;;;;;;14.56;100.00;100453.80;1682358;83;22623;-85
2022/08/21 09:23:19;;;;;;;5.62;2.20;;;;;;;14.60;100.00;100456.18;1682555;83;21592;-83
2022/08/21 09:26:03;;;;;;;4.87;2.05;;;;;;;14.65;100.00;100453.31;1685349;83;21055;-81
2022/08/21 09:28:36;;;;;;;5.35;2.10;;;;;;;14.67;100.00;100438.27;1684545;83;22923;-81
2022/08/21 09:31:10;;;;;;;6.33;2.55;;;;;;;14.74;100.00;100435.66;1708935;82;21617;-84
2022/08/21 09:33:37;;;;;;;7.62;2.47;;;;;;;14.78;100.00;100436.38;1715254;82;21113;-83
2022/08/21 09:36:05;;;;;;;6.25;2.55;;;;;;;14.82;100.00;100434.78;1661687;84;21080;-85
2022/08/21 09:38:37;;;;;;;6.03;2.60;;;;;;;14.85;100.00;100430.66;1672455;84;21095;-81
2022/08/21 09:41:08;;;;;;;4.62;2.62;;;;;;;14.90;100.00;100427.30;1709960;83;21107;-83
2022/08/21 09:43:37;;;;;;;8.08;2.47;;;;;;;14.94;100.00;100420.09;1714907;82;21554;-85
2022/08/21 09:46:21;;;;;;;5.40;2.30;;;;;;;14.97;100.00;100415.12;1719201;82;21137;-84
2022/08/21 09:48:53;;;;;;;4.80;2.67;;;;;;;14.99;100.00;100406.63;1717355;82;21085;-84
2022/08/21 09:51:35;;;;;;;5.35;2.45;;;;;;;15.00;100.00;100410.98;1718630;83;21519;-84
2022/08/21 09:54:11;;;;;;;5.55;2.67;;;;;;;15.04;100.00;100407.22;1719981;80;21307;-84
2022/08/21 09:59:43;;;;;;;4.33;2.70;;;;;;;15.13;100.00;100405.38;1755889;81;21262;-86
2022/08/21 10:02:34;;;;;;;7.08;3.20;;;;;;;15.15;100.00;100403.04;1762782;79;21564;-84
2022/08/21 10:05:20;;;;;;;5.92;2.87;;;;;;;15.19;100.00;100402.42;1760802;81;21175;-82
2022/08/21 10:07:47;;;;;;;9.50;2.95;;;;;;;15.18;100.00;100393.63;1764923;79;21187;-83
2022/08/21 10:10:31;;;;;;;5.15;2.92;;;;;;;15.20;100.00;100396.19;1766826;80;21479;-81
2022/08/21 10:13:15;;;;;;;5.65;2.60;;;;;;;15.20;100.00;100397.98;1765114;80;21533;-80
2022/08/21 10:15:57;;;;;;;5.00;2.75;;;;;;;15.23;100.00;100393.84;1765497;80;21064;-81
2022/08/21 10:18:44;;;;;;;5.30;2.50;;;;;;;15.21;100.00;100397.04;1768237;80;21121;-81
2022/08/21 10:21:37;;;;;;;5.42;2.22;;;;;;;15.20;100.00;100394.88;1765629;79;21176;-84
2022/08/21 10:24:13;;;;;;;7.30;2.62;;;;;;;15.20;100.00;100394.88;1756761;80;20933;-83
2022/08/21 10:26:58;;;;;;;4.15;2.55;;;;;;;15.36;100.00;100402.78;1767354;80;21053;-80
2022/08/21 10:29:53;;;;;;;5.25;2.70;;;;;;;15.36;100.00;100402.78;1764344;79;21062;-82
2022/08/21 10:32:35;;;;;;;5.78;2.83;;;;;;;15.39;100.00;100403.93;1764888;80;21124;-81
2022/08/21 10:35:16;;;;;;;4.30;2.45;;;;;;;15.43;100.00;100409.41;1765949;80;21451;-80
2022/08/21 10:38:16;;;;;;;4.28;2.58;;;;;;;15.45;100.00;100411.97;1735014;80;21125;-80
2022/08/21 10:40:56;;;;;;;4.70;2.60;;;;;;;15.38;100.00;100408.37;1764035;80;21705;-80
2022/08/21 10:43:52;;;;;;;4.60;2.75;;;;;;;15.36;100.00;100414.67;1758941;79;20931;-81
2022/08/21 10:46:44;;;;;;;5.80;2.77;;;;;;;15.40;100.00;100413.55;1731332;81;21125;-80
2022/08/21 10:49:56;;;;;;;3.77;2.62;;;;;;;15.43;100.00;100414.69;1774994;80;22604;-79
2022/08/21 10:52:49;;;;;;;3.45;2.37;;;;;;;15.49;100.00;100414.80;1792986;79;21002;-79
2022/08/21 10:55:24;;;;;;;3.95;2.65;;;;;;;15.63;100.00;100413.56;1736953;82;21581;-79
2022/08/21 10:57:56;;;;;;;6.20;3.27;;;;;;;15.76;100.00;100410.60;1755319;81;21050;-78
2022/08/21 11:00:32;;;;;;;5.60;2.80;;;;;;;15.92;100.00;100408.39;1763506;80;21038;-80
2022/08/21 11:03:04;;;;;;;4.40;2.77;;;;;;;16.04;100.00;100408.98;1771885;79;21103;-78
2022/08/21 11:05:39;;;;;;;5.40;2.62;;;;;;;16.12;100.00;100400.11;1769611;80;21003;-78
2022/08/21 11:08:14;;;;;;;7.00;3.05;;;;;;;16.21;100.00;100402.67;1783305;80;21034;-77
2022/08/21 11:10:52;;;;;;;6.87;3.02;;;;;;;16.29;100.00;100395.12;1754400;81;21067;-79
2022/08/21 11:13:52;;;;;;;4.12;2.98;;;;;;;16.36;100.00;100399.11;1731461;80;21501;-77
2022/08/21 11:16:43;;;;;;;5.05;3.15;;;;;;;16.39;100.00;100395.43;1734871;80;21146;-78
2022/08/21 11:19:27;;;;;;;4.85;2.92;;;;;;;16.36;100.00;100399.59;1743248;80;21048;-77
2022/08/21 11:22:25;;;;;;;5.47;2.83;;;;;;;16.29;100.00;100397.77;1742681;80;21537;-78
2022/08/21 11:25:21;;;;;;;5.08;2.70;;;;;;;16.22;100.00;100393.81;1762340;80;21493;-78
2022/08/21 11:28:03;;;;;;;5.37;3.30;;;;;;;16.18;100.00;100397.57;1742876;80;21103;-77
2022/08/21 11:30:54;;;;;;;3.70;2.60;;;;;;;16.11;100.00;100411.64;1762056;80;21078;-77
2022/08/21 11:33:27;;;;;;;5.33;2.80;;;;;;;15.97;100.00;100408.50;1677877;85;21117;-77
2022/08/21 11:36:04;;;;;;;3.62;2.67;;;;;;;15.88;100.00;100417.43;1728046;80;21044;-78
2022/08/21 11:38:44;;;;;;;5.87;3.30;;;;;;;15.76;100.00;100404.47;1773395;80;21468;-79
2022/08/21 11:41:23;;;;;;;4.00;2.80;;;;;;;15.68;100.00;100411.95;1752247;79;20985;-79